Terminal Aerodrome Forecast
Issued by NWS

Home | Current Version | Previous Version | Text Only | Print | Product List | Glossary On
Versions: 1 2 3 4 5 6 7 8 9 10 11 12 13 14 15 16
000
FTUS45 KFGZ 172100 AAB
TAFPGA
TAF AMD
KPGA 172103Z 1721/1818 19006KT P6SM VCSH BKN015 OVC030
      TEMPO 1721/1801 5SM -SHRA BR SCT015 BKN020 OVC035
     FM180300 VRB04KT 6SM BR SCT015 BKN025
     FM181500 25005KT P6SM SCT025 BKN035=

USA.gov is the U.S. government's official web portal to all federal, state and local government web resources and services.